CheckWX is a tool to help pilots better visualize weather data.  It is not intended as a substitute for an official pre-flight weather briefing.

11:02:13 UTC

URRP TAF
Platov International Airport
Rostov Oblast, Russian Federation
TAF URRP 170800Z 1709/1809 23006G11MPS 9999 SCT030CB TX25/1712Z TN12/1803Z TEMPO 1709/1712 25009G15MPS TEMPO 1715/1806 3100 -SHRA SCT011 BKN020CB PROB40 TEMPO 1715/1806 -TSRA

Sep-17@
09:00 UTC

Sep-17 @ 09:00 UTC

Sep-18@
09:00 UTC

Sep-18 @ 09:00 UTC

TAF URRP 170800Z 1709/1809 23006G11MPS 9999 SCT030CB TX25/1712Z TN12/1803Z
Wind
  • 230° at 12 KTS
  • {Gusting to 21 KTS
Cloud Levels
  • Scattered at 3,000' AGL

Sep-17@
09:00 UTC

Sep-17 @ 09:00 UTC

Sep-17@
12:00 UTC

Sep-17 @ 12:00 UTC

TEMPO 1709/1712 25009G15MPS

Temporary

Temporary Changes expected for less than half the time period

Wind
  • 250° at 17 KTS
  • {Gusting to 29 KTS

Sep-17@
15:00 UTC

Sep-17 @ 15:00 UTC

Sep-18@
06:00 UTC

Sep-18 @ 06:00 UTC

TEMPO 1715/1806 3100 -SHRA SCT011 BKN020CB

Temporary

Temporary Changes expected for less than half the time period

Conditions
Light Rain
Cloud Levels
  • Scattered at 1,100' AGL
  • Broken at 2,000' AGL

Sep-17@
15:00 UTC

Sep-17 @ 15:00 UTC

Sep-18@
06:00 UTC

Sep-18 @ 06:00 UTC

PROB40 TEMPO 1715/1806 -TSRA

Temporary - 40% Likelihood

Temporary - 40% Likelihood during this time.

Conditions
Light Thunderstorm, Light Rain